Time;durP1;ratioP1;P1;durP2;ratioP2;P2;SDS_P1;SDS_P2;PMS_P1;PMS_P2;Temp;Humidity;BMP_temperature;BMP_pressure;BME280_temperature;BME280_humidity;BME280_pressure;Samples;Min_cycle;Max_cycle;Signal;HPM_P1;HPM_P2
2021/07/21 00:00:57;;;;;;;3.33;1.80;;;;;;;;;;4520145;28;20489;-59
2021/07/21 00:03:08;;;;;;;3.00;1.83;;;;;;;;;;4494743;28;20130;-59
2021/07/21 00:05:19;;;;;;;2.00;1.70;;;;;;;;;;4520175;28;20072;-59
2021/07/21 00:07:30;;;;;;;3.03;1.80;;;;;;;;;;4500035;28;20145;-59
2021/07/21 00:09:40;;;;;;;1.97;1.70;;;;;;;;;;4519795;28;20040;-59
2021/07/21 00:14:20;;;;;;;2.35;1.67;;;;;;;;;;4501769;28;20124;-59
2021/07/21 00:16:35;;;;;;;2.40;2.00;;;;;;;;;;4502304;28;20516;-59
2021/07/21 00:18:49;;;;;;;1.95;1.50;;;;;;;;;;4499623;28;20045;-58
2021/07/21 00:20:59;;;;;;;2.17;1.52;;;;;;;;;;4523013;28;20192;-58
2021/07/21 00:23:10;;;;;;;3.00;1.40;;;;;;;;;;4523042;28;20037;-59
2021/07/21 00:25:20;;;;;;;2.10;1.50;;;;;;;;;;4523215;28;20045;-60
2021/07/21 00:27:31;;;;;;;2.10;1.53;;;;;;;;;;4487952;28;20057;-59
2021/07/21 00:29:42;;;;;;;2.45;1.77;;;;;;;;;;4505048;28;20037;-59
2021/07/21 00:31:52;;;;;;;2.30;1.90;;;;;;;;;;4505443;28;20042;-59
2021/07/21 00:34:03;;;;;;;2.30;1.90;;;;;;;;;;4522735;28;20036;-59
2021/07/21 00:36:14;;;;;;;3.17;1.50;;;;;;;;;;4504830;28;20045;-59
2021/07/21 00:38:24;;;;;;;1.67;1.57;;;;;;;;;;4504591;28;20759;-59
2021/07/21 00:40:35;;;;;;;2.40;1.73;;;;;;;;;;4522576;28;20033;-59
2021/07/21 00:42:46;;;;;;;1.95;1.58;;;;;;;;;;4522247;28;20668;-59
2021/07/21 00:44:56;;;;;;;3.90;1.57;;;;;;;;;;4522550;28;20037;-59
2021/07/21 00:47:07;;;;;;;3.30;2.07;;;;;;;;;;4522344;28;20091;-59
2021/07/21 00:49:18;;;;;;;2.35;1.70;;;;;;;;;;4505260;28;20034;-59
2021/07/21 00:51:29;;;;;;;3.10;1.77;;;;;;;;;;4504897;28;20041;-59
2021/07/21 00:53:40;;;;;;;2.65;1.55;;;;;;;;;;4504645;28;20045;-59
2021/07/21 00:55:56;;;;;;;2.20;1.60;;;;;;;;;;4488621;28;20051;-59
2021/07/21 00:58:06;;;;;;;1.87;1.40;;;;;;;;;;4497905;28;20026;-59
2021/07/21 01:00:18;;;;;;;2.40;1.63;;;;;;;;;;4504371;28;20923;-59
2021/07/21 01:02:36;;;;;;;2.00;1.52;;;;;;;;;;4521913;28;20865;-59
2021/07/21 01:04:47;;;;;;;2.67;1.60;;;;;;;;;;4467311;28;20130;-59
2021/07/21 01:07:01;;;;;;;2.15;1.67;;;;;;;;;;4489348;28;20077;-59
2021/07/21 01:09:12;;;;;;;2.85;1.70;;;;;;;;;;4520093;28;20045;-59
2021/07/21 01:11:56;;;;;;;2.17;1.73;;;;;;;;;;4501345;28;20780;-59
2021/07/21 01:14:13;;;;;;;2.10;1.80;;;;;;;;;;4503911;28;20487;-59
2021/07/21 01:16:28;;;;;;;2.65;1.75;;;;;;;;;;4522279;28;20038;-59
2021/07/21 01:19:10;;;;;;;2.80;1.88;;;;;;;;;;4503292;28;20076;-59
2021/07/21 01:21:40;;;;;;;;;;;;;;;;;;4503353;28;20625;-59
2021/07/21 01:24:13;;;;;;;2.22;1.83;;;;;;;;;;4519957;28;20079;-59
2021/07/21 01:26:26;;;;;;;2.92;1.90;;;;;;;;;;4487304;28;20034;-59
2021/07/21 01:28:41;;;;;;;2.30;1.80;;;;;;;;;;4502429;28;20034;-58
2021/07/21 01:30:52;;;;;;;2.38;1.83;;;;;;;;;;4503654;28;20065;-59
2021/07/21 01:33:08;;;;;;;;;;;;;;;;;;4488153;28;20031;-59
2021/07/21 01:35:25;;;;;;;2.25;1.65;;;;;;;;;;4521344;28;19963;-58
2021/07/21 01:37:39;;;;;;;2.42;1.77;;;;;;;;;;4503291;28;20077;-59
2021/07/21 01:39:55;;;;;;;2.42;1.80;;;;;;;;;;4487389;28;20137;-59
2021/07/21 01:42:10;;;;;;;2.33;1.92;;;;;;;;;;4521391;28;20299;-59
2021/07/21 01:44:26;;;;;;;3.85;1.70;;;;;;;;;;4519952;28;20565;-59
2021/07/21 01:46:37;;;;;;;2.60;1.60;;;;;;;;;;4487092;28;20038;-59
2021/07/21 01:48:50;;;;;;;3.15;2.05;;;;;;;;;;4496282;28;20621;-59
2021/07/21 01:51:04;;;;;;;2.38;1.85;;;;;;;;;;4521153;28;20033;-58
2021/07/21 01:53:16;;;;;;;1.90;1.52;;;;;;;;;;4503292;28;20038;-59
2021/07/21 01:55:27;;;;;;;2.42;1.70;;;;;;;;;;4486498;28;20023;-59
2021/07/21 01:57:38;;;;;;;3.10;1.90;;;;;;;;;;4502639;28;20041;-59
2021/07/21 02:00:22;;;;;;;2.47;1.90;;;;;;;;;;4502466;28;20208;-59
2021/07/21 02:02:33;;;;;;;1.92;1.63;;;;;;;;;;4520312;28;20145;-59
2021/07/21 02:04:53;;;;;;;2.00;1.65;;;;;;;;;;4489744;28;20042;-59
2021/07/21 02:07:06;;;;;;;;;;;;;;;;;;4520880;28;20053;-59
2021/07/21 02:09:16;;;;;;;2.72;1.83;;;;;;;;;;4519487;28;20098;-59
2021/07/21 02:11:29;;;;;;;2.38;1.73;;;;;;;;;;4489002;28;20043;-59
2021/07/21 02:13:41;;;;;;;;;;;;;;;;;;4471364;28;20059;-59
2021/07/21 02:16:02;;;;;;;3.97;2.00;;;;;;;;;;4503163;28;19917;-59
2021/07/21 02:18:18;;;;;;;2.55;1.77;;;;;;;;;;4502229;28;20034;-59
2021/07/21 02:20:28;;;;;;;2.40;1.58;;;;;;;;;;4493083;28;20030;-59
2021/07/21 02:22:42;;;;;;;3.22;1.70;;;;;;;;;;4486653;28;20088;-59
2021/07/21 02:25:14;;;;;;;2.72;1.85;;;;;;;;;;4483533;28;20816;-59
2021/07/21 02:27:28;;;;;;;2.72;1.70;;;;;;;;;;4486851;28;20038;-59
2021/07/21 02:29:39;;;;;;;2.70;1.73;;;;;;;;;;4496167;28;20541;-59
2021/07/21 02:32:06;;;;;;;3.38;1.90;;;;;;;;;;4486301;28;20109;-59
2021/07/21 02:34:17;;;;;;;2.92;1.73;;;;;;;;;;4495659;28;20129;-59
2021/07/21 02:36:27;;;;;;;2.67;1.80;;;;;;;;;;4502919;28;20042;-59
2021/07/21 02:38:39;;;;;;;;;;;;;;;;;;4503080;28;20033;-59
2021/07/21 02:40:49;;;;;;;3.17;1.92;;;;;;;;;;4506775;28;20216;-59
2021/07/21 02:43:06;;;;;;;3.22;1.80;;;;;;;;;;4502557;28;20038;-59
2021/07/21 02:45:16;;;;;;;3.22;1.80;;;;;;;;;;4520867;28;20042;-59
2021/07/21 02:47:28;;;;;;;2.53;1.90;;;;;;;;;;4502132;28;20050;-59
2021/07/21 02:49:45;;;;;;;2.20;1.42;;;;;;;;;;4502691;28;20752;-59
2021/07/21 02:52:05;;;;;;;1.63;1.42;;;;;;;;;;4485971;28;20027;-59
2021/07/21 02:54:42;;;;;;;2.22;1.80;;;;;;;;;;4490190;28;20089;-59
2021/07/21 02:57:14;;;;;;;2.78;1.65;;;;;;;;;;4502478;28;20037;-59
2021/07/21 02:59:37;;;;;;;2.53;1.70;;;;;;;;;;4519005;28;20568;-59
2021/07/21 03:01:48;;;;;;;2.85;1.80;;;;;;;;;;4495951;28;20042;-59
2021/07/21 03:04:01;;;;;;;2.70;1.65;;;;;;;;;;4485954;28;20716;-59
2021/07/21 03:06:15;;;;;;;2.15;1.63;;;;;;;;;;4518650;28;21708;-60
2021/07/21 03:08:42;;;;;;;2.28;1.52;;;;;;;;;;4520339;28;20619;-59
2021/07/21 03:11:17;;;;;;;2.20;1.63;;;;;;;;;;4495872;28;20622;-59
2021/07/21 03:13:39;;;;;;;2.15;1.70;;;;;;;;;;4471413;28;20114;-59
2021/07/21 03:15:52;;;;;;;3.10;2.00;;;;;;;;;;4502869;28;20068;-59
2021/07/21 03:18:12;;;;;;;2.58;1.80;;;;;;;;;;4520329;28;20148;-59
2021/07/21 03:20:28;;;;;;;1.95;1.60;;;;;;;;;;4486289;28;20605;-60
2021/07/21 03:22:54;;;;;;;3.38;1.80;;;;;;;;;;4499132;28;20021;-59
2021/07/21 03:25:08;;;;;;;2.17;1.50;;;;;;;;;;4496722;28;20035;-59
2021/07/21 03:27:27;;;;;;;2.67;1.90;;;;;;;;;;4501793;28;20045;-59
2021/07/21 03:29:57;;;;;;;3.25;1.75;;;;;;;;;;4504585;28;20805;-59
2021/07/21 03:32:22;;;;;;;2.92;1.75;;;;;;;;;;4486633;28;20124;-59
2021/07/21 03:34:36;;;;;;;2.40;1.63;;;;;;;;;;4502116;28;20034;-59
2021/07/21 03:36:50;;;;;;;2.55;1.65;;;;;;;;;;4503813;28;21214;-59
2021/07/21 03:39:16;;;;;;;3.60;1.90;;;;;;;;;;4498151;28;20124;-59
2021/07/21 03:41:51;;;;;;;2.33;1.83;;;;;;;;;;4488253;28;20037;-59
2021/07/21 03:44:04;;;;;;;2.65;1.60;;;;;;;;;;4501964;28;20045;-59
2021/07/21 03:46:15;;;;;;;2.22;1.58;;;;;;;;;;4502013;28;20589;-59
2021/07/21 03:48:26;;;;;;;2.05;1.70;;;;;;;;;;4501400;28;20030;-59
2021/07/21 03:51:00;;;;;;;2.58;1.67;;;;;;;;;;4488718;28;20022;-59
2021/07/21 03:53:16;;;;;;;3.17;1.80;;;;;;;;;;4473785;28;20042;-59
2021/07/21 03:55:28;;;;;;;3.30;1.83;;;;;;;;;;4504965;28;20108;-59
2021/07/21 03:57:57;;;;;;;2.20;1.70;;;;;;;;;;4522623;28;21072;-59
2021/07/21 04:00:18;;;;;;;2.50;1.60;;;;;;;;;;4522915;28;20033;-59
2021/07/21 04:02:39;;;;;;;3.00;1.77;;;;;;;;;;4522658;28;20076;-59
2021/07/21 04:04:53;;;;;;;2.35;1.60;;;;;;;;;;4522979;28;20080;-59
2021/07/21 04:07:08;;;;;;;2.88;1.80;;;;;;;;;;4505175;28;20487;-59
2021/07/21 04:09:33;;;;;;;3.75;1.70;;;;;;;;;;4506610;28;20718;-59
2021/07/21 04:11:49;;;;;;;2.42;1.63;;;;;;;;;;4488144;28;20068;-59
2021/07/21 04:14:08;;;;;;;1.85;1.50;;;;;;;;;;4499935;28;20030;-60
2021/07/21 04:16:38;;;;;;;2.88;1.90;;;;;;;;;;4522630;28;20741;-59
2021/07/21 04:18:49;;;;;;;3.40;1.70;;;;;;;;;;4498760;28;20030;-60
2021/07/21 04:21:01;;;;;;;2.55;1.65;;;;;;;;;;4506402;28;20026;-59
2021/07/21 04:23:12;;;;;;;2.22;1.67;;;;;;;;;;4504116;28;20038;-59
2021/07/21 04:25:24;;;;;;;2.13;1.70;;;;;;;;;;4504235;28;20033;-59
2021/07/21 04:27:56;;;;;;;3.00;1.90;;;;;;;;;;4506352;28;20072;-59
2021/07/21 04:30:10;;;;;;;2.90;2.08;;;;;;;;;;4487347;28;20082;-60
2021/07/21 04:32:22;;;;;;;2.70;1.80;;;;;;;;;;4506930;28;20603;-59
2021/07/21 04:34:33;;;;;;;2.28;1.60;;;;;;;;;;4503642;28;21005;-59
2021/07/21 04:36:45;;;;;;;2.87;1.87;;;;;;;;;;4484079;28;20034;-59
2021/07/21 04:38:57;;;;;;;2.80;2.03;;;;;;;;;;4495159;28;20594;-59
2021/07/21 04:41:13;;;;;;;2.20;1.80;;;;;;;;;;4501854;28;20841;-59
2021/07/21 04:43:43;;;;;;;2.85;2.15;;;;;;;;;;4506785;28;20128;-59
2021/07/21 04:46:04;;;;;;;3.15;2.20;;;;;;;;;;4489490;28;20030;-59
2021/07/21 04:48:15;;;;;;;3.97;1.88;;;;;;;;;;4521785;28;20045;-59
2021/07/21 04:50:40;;;;;;;2.30;1.80;;;;;;;;;;4521780;28;20180;-59
2021/07/21 04:52:50;;;;;;;2.50;1.98;;;;;;;;;;4503733;28;20069;-59
2021/07/21 04:55:05;;;;;;;3.00;1.90;;;;;;;;;;4503181;28;20045;-59
2021/07/21 04:57:18;;;;;;;2.97;2.00;;;;;;;;;;4503412;28;20845;-59
2021/07/21 04:59:44;;;;;;;2.90;2.22;;;;;;;;;;4482453;28;20033;-59
2021/07/21 05:01:54;;;;;;;3.90;2.40;;;;;;;;;;4504138;28;20034;-59
2021/07/21 05:04:06;;;;;;;3.03;2.33;;;;;;;;;;4486227;28;20261;-59
2021/07/21 05:06:32;;;;;;;3.08;1.77;;;;;;;;;;4493605;28;20128;-59
2021/07/21 05:08:42;;;;;;;2.53;1.88;;;;;;;;;;4521027;28;20668;-59
2021/07/21 05:11:05;;;;;;;2.65;1.90;;;;;;;;;;4521813;28;20029;-59
2021/07/21 05:13:17;;;;;;;2.20;1.95;;;;;;;;;;4503508;28;20129;-59
2021/07/21 05:15:30;;;;;;;2.33;1.80;;;;;;;;;;4503648;28;20038;-59
2021/07/21 05:17:54;;;;;;;2.70;2.10;;;;;;;;;;4505305;28;20593;-60
2021/07/21 05:20:14;;;;;;;2.92;1.80;;;;;;;;;;4503768;28;20037;-59
2021/07/21 05:22:47;;;;;;;3.47;2.03;;;;;;;;;;4521652;28;20026;-59
2021/07/21 05:24:58;;;;;;;3.95;2.10;;;;;;;;;;4503777;28;20038;-59
2021/07/21 05:27:14;;;;;;;2.53;2.00;;;;;;;;;;4493397;28;20181;-59
2021/07/21 05:29:25;;;;;;;2.50;1.90;;;;;;;;;;4503144;28;20092;-59
2021/07/21 05:31:47;;;;;;;4.15;2.00;;;;;;;;;;4521869;28;21024;-59
2021/07/21 05:34:10;;;;;;;2.55;1.75;;;;;;;;;;4519247;28;20041;-59
2021/07/21 05:36:20;;;;;;;3.00;2.00;;;;;;;;;;4496374;28;20399;-59
2021/07/21 05:38:32;;;;;;;4.85;2.40;;;;;;;;;;4522054;28;20128;-59
2021/07/21 05:40:44;;;;;;;3.35;2.17;;;;;;;;;;4520042;28;20120;-59
2021/07/21 05:43:04;;;;;;;4.28;2.38;;;;;;;;;;4521780;28;20076;-59
2021/07/21 05:45:27;;;;;;;3.78;1.85;;;;;;;;;;4488937;28;20875;-59
2021/07/21 05:47:40;;;;;;;3.50;1.80;;;;;;;;;;4521692;28;20068;-59
2021/07/21 05:49:53;;;;;;;2.92;2.13;;;;;;;;;;4497348;28;20028;-59
2021/07/21 05:52:11;;;;;;;3.03;2.05;;;;;;;;;;4502813;28;20037;-59
2021/07/21 05:54:22;;;;;;;2.77;2.17;;;;;;;;;;4521238;28;20486;-59
2021/07/21 05:56:33;;;;;;;3.83;2.38;;;;;;;;;;4503410;28;20300;-59
2021/07/21 05:58:44;;;;;;;3.30;2.20;;;;;;;;;;4521378;28;20045;-59
2021/07/21 06:00:55;;;;;;;3.10;2.30;;;;;;;;;;4521588;28;20493;-59
2021/07/21 06:03:10;;;;;;;3.97;2.50;;;;;;;;;;4503752;28;20030;-58
2021/07/21 06:05:55;;;;;;;2.72;2.10;;;;;;;;;;4503598;28;20621;-59
2021/07/21 06:08:28;;;;;;;3.25;2.30;;;;;;;;;;4519522;28;20046;-58
2021/07/21 06:10:44;;;;;;;4.65;2.63;;;;;;;;;;4503364;28;20072;-58
2021/07/21 06:12:55;;;;;;;3.87;2.50;;;;;;;;;;4503142;28;20118;-59
2021/07/21 06:15:09;;;;;;;4.13;2.35;;;;;;;;;;4502900;28;21141;-59
2021/07/21 06:17:20;;;;;;;;;;;;;;;;;;4521084;28;20030;-59
2021/07/21 06:19:49;;;;;;;2.67;2.05;;;;;;;;;;4503265;28;19964;-59
2021/07/21 06:22:04;;;;;;;5.00;2.42;;;;;;;;;;4502681;28;20037;-59
2021/07/21 06:24:23;;;;;;;3.15;2.17;;;;;;;;;;4517423;28;20109;-59
2021/07/21 06:26:36;;;;;;;4.50;2.70;;;;;;;;;;4502285;28;20048;-59
2021/07/21 06:29:08;;;;;;;3.50;2.28;;;;;;;;;;4492040;28;20030;-59
2021/07/21 06:31:20;;;;;;;;;;;;;;;;;;4503402;28;20041;-58
2021/07/21 06:33:33;;;;;;;3.10;2.10;;;;;;;;;;4519583;28;20023;-59
2021/07/21 06:35:48;;;;;;;4.60;2.30;;;;;;;;;;4486667;28;20136;-59
2021/07/21 06:37:58;;;;;;;3.65;2.25;;;;;;;;;;4496684;28;20037;-59
2021/07/21 06:40:13;;;;;;;3.40;2.60;;;;;;;;;;4496593;28;20034;-58
2021/07/21 06:42:25;;;;;;;3.42;2.35;;;;;;;;;;4502968;28;20101;-58
2021/07/21 06:44:35;;;;;;;;;;;;;;;;;;4521393;28;20861;-58
2021/07/21 06:47:02;;;;;;;3.75;2.60;;;;;;;;;;4519103;28;20611;-58
2021/07/21 06:49:16;;;;;;;3.17;2.35;;;;;;;;;;4520770;28;20144;-58
2021/07/21 06:51:27;;;;;;;4.13;2.47;;;;;;;;;;4520883;28;20377;-59
2021/07/21 06:53:37;;;;;;;3.20;2.10;;;;;;;;;;4520742;28;20534;-58
2021/07/21 06:55:57;;;;;;;4.22;2.30;;;;;;;;;;4518444;28;20383;-58
2021/07/21 06:58:09;;;;;;;3.00;2.10;;;;;;;;;;4520541;28;20037;-59
2021/07/21 07:00:38;;;;;;;3.42;2.38;;;;;;;;;;4520656;28;20033;-58
2021/07/21 07:02:49;;;;;;;3.80;2.37;;;;;;;;;;4502398;28;20395;-57
2021/07/21 07:05:18;;;;;;;4.35;2.30;;;;;;;;;;4520611;28;20569;-59
2021/07/21 07:07:52;;;;;;;3.47;2.22;;;;;;;;;;4486006;28;20135;-59
2021/07/21 07:10:21;;;;;;;3.95;2.40;;;;;;;;;;4520483;28;20041;-59
2021/07/21 07:12:31;;;;;;;3.97;2.53;;;;;;;;;;4520346;28;20506;-59
2021/07/21 07:14:42;;;;;;;4.00;2.70;;;;;;;;;;4495417;28;20032;-59
2021/07/21 07:16:52;;;;;;;3.43;2.40;;;;;;;;;;4520203;28;20061;-59
2021/07/21 07:19:03;;;;;;;5.73;2.70;;;;;;;;;;4502770;28;20038;-58
2021/07/21 07:21:13;;;;;;;3.03;2.30;;;;;;;;;;4520715;28;20034;-58
2021/07/21 07:23:24;;;;;;;4.20;2.67;;;;;;;;;;4520775;28;20087;-58
2021/07/21 07:25:35;;;;;;;5.37;3.10;;;;;;;;;;4495218;28;20038;-58
2021/07/21 07:27:46;;;;;;;4.13;2.60;;;;;;;;;;4504149;28;20064;-59
2021/07/21 07:29:56;;;;;;;4.07;2.83;;;;;;;;;;4505931;28;20529;-59
2021/07/21 07:32:07;;;;;;;4.60;2.70;;;;;;;;;;4523780;28;20060;-58
2021/07/21 07:34:18;;;;;;;4.43;2.70;;;;;;;;;;4523549;28;20112;-58
2021/07/21 07:36:29;;;;;;;3.20;2.55;;;;;;;;;;4523644;28;20107;-58
2021/07/21 07:38:39;;;;;;;3.00;2.60;;;;;;;;;;4523060;28;20041;-59
2021/07/21 07:40:50;;;;;;;2.93;2.23;;;;;;;;;;4496406;28;20083;-59
2021/07/21 07:43:00;;;;;;;4.93;2.80;;;;;;;;;;4523243;28;20600;-58
2021/07/21 07:45:11;;;;;;;3.73;2.60;;;;;;;;;;4523453;28;20060;-58
2021/07/21 07:47:22;;;;;;;4.82;2.78;;;;;;;;;;4499058;28;20057;-58
2021/07/21 07:49:32;;;;;;;3.93;2.53;;;;;;;;;;4523513;28;20033;-58
2021/07/21 07:51:43;;;;;;;4.80;2.60;;;;;;;;;;4522986;28;20033;-58
2021/07/21 07:53:53;;;;;;;4.33;2.77;;;;;;;;;;4523372;28;20041;-58
2021/07/21 07:56:04;;;;;;;4.17;2.40;;;;;;;;;;4523122;28;20036;-58
2021/07/21 07:58:14;;;;;;;4.00;2.63;;;;;;;;;;4523435;28;20122;-58
2021/07/21 08:00:25;;;;;;;3.47;2.57;;;;;;;;;;4505245;28;20037;-58
2021/07/21 08:02:36;;;;;;;4.07;2.77;;;;;;;;;;4504767;28;20033;-58
2021/07/21 08:04:49;;;;;;;4.18;2.47;;;;;;;;;;4505325;28;20038;-58
2021/07/21 08:07:00;;;;;;;4.35;2.53;;;;;;;;;;4498246;28;20046;-58
2021/07/21 08:09:14;;;;;;;3.57;2.03;;;;;;;;;;4522523;28;20041;-58
2021/07/21 08:11:24;;;;;;;4.93;2.92;;;;;;;;;;4499082;28;20038;-58
2021/07/21 08:13:35;;;;;;;5.27;2.70;;;;;;;;;;4522926;28;20049;-59
2021/07/21 08:15:46;;;;;;;3.88;2.67;;;;;;;;;;4521931;28;20028;-58
2021/07/21 08:17:59;;;;;;;4.25;2.50;;;;;;;;;;4522730;28;20042;-58
2021/07/21 08:20:10;;;;;;;4.05;2.70;;;;;;;;;;4487826;28;20042;-58
2021/07/21 08:22:20;;;;;;;4.95;3.08;;;;;;;;;;4523616;28;20044;-58
2021/07/21 08:24:31;;;;;;;3.90;2.67;;;;;;;;;;4522989;28;20036;-58
2021/07/21 08:26:42;;;;;;;4.20;2.70;;;;;;;;;;4522875;28;20033;-58
2021/07/21 08:28:52;;;;;;;3.17;2.22;;;;;;;;;;4522248;28;20092;-58
2021/07/21 08:31:03;;;;;;;4.30;2.97;;;;;;;;;;4522945;28;20505;-58
2021/07/21 08:33:14;;;;;;;4.37;2.67;;;;;;;;;;4522735;28;20063;-58
2021/07/21 08:35:28;;;;;;;4.40;2.95;;;;;;;;;;4522662;28;20152;-58
2021/07/21 08:37:39;;;;;;;3.42;2.47;;;;;;;;;;4504516;28;20038;-58
2021/07/21 08:39:50;;;;;;;;;;;;;;;;;;4522235;28;20030;-59
2021/07/21 08:42:00;;;;;;;3.58;2.67;;;;;;;;;;4522527;28;20377;-58
2021/07/21 08:44:14;;;;;;;4.28;2.97;;;;;;;;;;4491864;28;20042;-58
2021/07/21 08:46:25;;;;;;;4.80;2.90;;;;;;;;;;4480840;28;20046;-58
2021/07/21 08:48:35;;;;;;;5.37;2.90;;;;;;;;;;4504336;28;20036;-58
2021/07/21 08:50:46;;;;;;;3.93;2.73;;;;;;;;;;4504724;28;20038;-58
2021/07/21 08:52:57;;;;;;;3.80;2.67;;;;;;;;;;4504052;28;20133;-59
2021/07/21 08:55:10;;;;;;;4.55;2.65;;;;;;;;;;4507055;28;20034;-58
2021/07/21 08:57:22;;;;;;;3.72;2.60;;;;;;;;;;4504175;28;20064;-58
2021/07/21 08:59:32;;;;;;;4.32;2.67;;;;;;;;;;4522149;28;20626;-58
2021/07/21 09:01:43;;;;;;;3.43;2.40;;;;;;;;;;4504710;28;20095;-59
2021/07/21 09:03:54;;;;;;;4.45;2.92;;;;;;;;;;4497211;28;20042;-58
2021/07/21 09:06:04;;;;;;;5.97;3.37;;;;;;;;;;4522558;28;20088;-58
2021/07/21 09:08:15;;;;;;;4.00;2.83;;;;;;;;;;4503309;28;20046;-58
2021/07/21 09:10:25;;;;;;;4.72;2.85;;;;;;;;;;4522171;28;20132;-58
2021/07/21 09:12:38;;;;;;;4.33;2.73;;;;;;;;;;4522416;28;20124;-58
2021/07/21 09:14:48;;;;;;;4.20;2.70;;;;;;;;;;4504100;28;20124;-59
2021/07/21 09:17:11;;;;;;;3.17;2.30;;;;;;;;;;4522176;28;20095;-58
2021/07/21 09:19:35;;;;;;;4.15;2.70;;;;;;;;;;4504278;28;20145;-58
2021/07/21 09:21:46;;;;;;;3.83;2.50;;;;;;;;;;4521788;28;20041;-58
2021/07/21 09:23:57;;;;;;;3.83;2.60;;;;;;;;;;4521814;28;20041;-58
2021/07/21 09:26:08;;;;;;;;;;;;;;;;;;4521933;28;21032;-58
2021/07/21 09:28:20;;;;;;;3.33;2.30;;;;;;;;;;4503468;28;19922;-59
2021/07/21 09:30:37;;;;;;;3.53;2.30;;;;;;;;;;4521990;28;20959;-58
2021/07/21 09:32:53;;;;;;;4.28;2.50;;;;;;;;;;4521890;28;20148;-58
2021/07/21 09:35:04;;;;;;;3.75;2.30;;;;;;;;;;4521861;28;20141;-58
2021/07/21 09:37:15;;;;;;;3.20;2.28;;;;;;;;;;4521548;28;20385;-58
2021/07/21 09:39:36;;;;;;;4.00;2.60;;;;;;;;;;4504077;28;20038;-59
2021/07/21 09:41:52;;;;;;;4.07;2.42;;;;;;;;;;4503730;28;20308;-58
2021/07/21 09:44:05;;;;;;;4.28;2.28;;;;;;;;;;4521847;28;20067;-58
2021/07/21 09:46:16;;;;;;;3.88;2.25;;;;;;;;;;4521532;28;20606;-58
2021/07/21 09:48:41;;;;;;;2.93;2.50;;;;;;;;;;4502770;28;20048;-58
2021/07/21 09:50:51;;;;;;;4.00;1.98;;;;;;;;;;4503075;28;20885;-58
2021/07/21 09:53:06;;;;;;;4.33;2.13;;;;;;;;;;4503056;28;20030;-58
2021/07/21 09:55:18;;;;;;;3.70;2.45;;;;;;;;;;4521481;28;20029;-59
2021/07/21 09:57:29;;;;;;;4.40;2.78;;;;;;;;;;4521412;28;20040;-58
2021/07/21 09:59:39;;;;;;;3.80;2.30;;;;;;;;;;4521729;28;20088;-58
2021/07/21 10:01:51;;;;;;;4.67;2.43;;;;;;;;;;4521116;28;20033;-58
2021/07/21 10:04:05;;;;;;;3.53;2.38;;;;;;;;;;4486550;28;20077;-58
2021/07/21 10:06:15;;;;;;;4.43;2.50;;;;;;;;;;4520177;28;20673;-58
2021/07/21 10:08:27;;;;;;;3.17;2.17;;;;;;;;;;4502871;28;20077;-58
2021/07/21 10:10:37;;;;;;;3.85;2.50;;;;;;;;;;4521303;28;20029;-57
2021/07/21 10:13:05;;;;;;;2.33;1.77;;;;;;;;;;4521148;28;20046;-58
2021/07/21 10:15:19;;;;;;;3.03;2.08;;;;;;;;;;4521116;28;20040;-58
2021/07/21 10:17:30;;;;;;;2.78;2.05;;;;;;;;;;4503027;28;20108;-59
2021/07/21 10:19:41;;;;;;;3.20;2.30;;;;;;;;;;4521144;28;20041;-58
2021/07/21 10:21:55;;;;;;;2.70;1.80;;;;;;;;;;4521335;28;20037;-58
2021/07/21 10:24:06;;;;;;;2.65;1.85;;;;;;;;;;4521129;28;20029;-59
2021/07/21 10:26:17;;;;;;;3.05;1.95;;;;;;;;;;4497254;28;20487;-58
2021/07/21 10:28:27;;;;;;;3.57;2.47;;;;;;;;;;4503070;28;20140;-58
2021/07/21 10:30:40;;;;;;;3.83;2.40;;;;;;;;;;4521481;28;20128;-58
2021/07/21 10:32:51;;;;;;;3.95;2.55;;;;;;;;;;4521439;28;20029;-58
2021/07/21 10:35:02;;;;;;;4.27;2.57;;;;;;;;;;4504429;28;20475;-58
2021/07/21 10:37:13;;;;;;;4.00;2.70;;;;;;;;;;4503394;28;20129;-58
2021/07/21 10:39:28;;;;;;;3.78;2.53;;;;;;;;;;4521536;28;20640;-58
2021/07/21 10:41:40;;;;;;;3.97;2.78;;;;;;;;;;4496290;28;20592;-58
2021/07/21 10:43:53;;;;;;;4.43;2.70;;;;;;;;;;4521080;28;20036;-58
2021/07/21 10:46:42;;;;;;;5.03;2.72;;;;;;;;;;4486307;28;20654;-58
2021/07/21 10:49:36;;;;;;;4.30;2.53;;;;;;;;;;4519938;28;20041;-58
2021/07/21 10:54:41;;;;;;;3.53;2.30;;;;;;;;;;4504389;28;20670;-58
2021/07/21 10:59:23;;;;;;;3.40;2.40;;;;;;;;;;4521143;28;20956;-58
2021/07/21 11:01:33;;;;;;;3.42;2.50;;;;;;;;;;4519987;28;20877;-58
2021/07/21 11:03:44;;;;;;;3.13;2.10;;;;;;;;;;4520925;28;20124;-58
2021/07/21 11:06:03;;;;;;;3.55;2.40;;;;;;;;;;4521066;28;21171;-58
2021/07/21 11:08:19;;;;;;;2.65;2.00;;;;;;;;;;4520534;28;21304;-58
2021/07/21 11:10:31;;;;;;;3.25;2.13;;;;;;;;;;4520677;28;20030;-58
2021/07/21 11:12:48;;;;;;;;;;;;;;;;;;4521461;28;20025;-58
2021/07/21 11:14:59;;;;;;;3.33;2.33;;;;;;;;;;4519986;28;20016;-58
2021/07/21 11:17:13;;;;;;;3.47;2.27;;;;;;;;;;4503038;28;21114;-58
2021/07/21 11:19:29;;;;;;;2.90;2.08;;;;;;;;;;4520297;28;20425;-58
2021/07/21 11:22:00;;;;;;;2.65;2.00;;;;;;;;;;4520155;28;20040;-58
2021/07/21 11:24:12;;;;;;;2.65;2.10;;;;;;;;;;4502980;28;21426;-58
2021/07/21 11:26:39;;;;;;;3.25;2.08;;;;;;;;;;4518869;28;20038;-58
2021/07/21 11:28:50;;;;;;;4.03;2.55;;;;;;;;;;4518917;28;20147;-58
2021/07/21 11:31:02;;;;;;;3.10;2.17;;;;;;;;;;4494735;28;20029;-58
2021/07/21 11:33:50;;;;;;;3.88;2.50;;;;;;;;;;4520622;28;20059;-58
2021/07/21 11:36:00;;;;;;;4.60;2.58;;;;;;;;;;4520730;28;20064;-57
2021/07/21 11:38:19;;;;;;;4.93;2.90;;;;;;;;;;4520490;28;20041;-58
2021/07/21 11:40:42;;;;;;;4.47;2.90;;;;;;;;;;4502495;28;20038;-58
2021/07/21 11:42:53;;;;;;;4.95;3.00;;;;;;;;;;4486207;28;20022;-58
2021/07/21 11:45:11;;;;;;;5.03;3.00;;;;;;;;;;4492843;28;20042;-58
2021/07/21 11:47:24;;;;;;;4.88;3.13;;;;;;;;;;4519647;28;20042;-58
2021/07/21 11:49:34;;;;;;;5.13;3.33;;;;;;;;;;4498241;28;20034;-58
2021/07/21 11:51:52;;;;;;;4.17;2.90;;;;;;;;;;4502139;28;20033;-58
2021/07/21 11:54:02;;;;;;;4.95;3.30;;;;;;;;;;4519625;28;20112;-58
2021/07/21 11:56:13;;;;;;;5.60;3.57;;;;;;;;;;4519969;28;20040;-58
2021/07/21 11:58:23;;;;;;;5.60;3.20;;;;;;;;;;4519800;28;20036;-58
2021/07/21 12:00:34;;;;;;;4.78;3.20;;;;;;;;;;4519808;28;20037;-58
2021/07/21 12:02:44;;;;;;;5.13;3.13;;;;;;;;;;4520089;28;20120;-58
2021/07/21 12:04:56;;;;;;;4.40;3.13;;;;;;;;;;4519642;28;20029;-58
2021/07/21 12:07:08;;;;;;;4.38;2.97;;;;;;;;;;4519349;28;20870;-59
2021/07/21 12:09:24;;;;;;;;;;;;;;;;;;4506477;28;20042;-58
2021/07/21 12:11:35;;;;;;;5.68;3.35;;;;;;;;;;4484727;28;20071;-58
2021/07/21 12:13:45;;;;;;;4.57;3.30;;;;;;;;;;4503960;28;20038;-58
2021/07/21 12:16:00;;;;;;;3.93;3.10;;;;;;;;;;4523042;28;20040;-58
2021/07/21 12:18:15;;;;;;;5.03;3.10;;;;;;;;;;4522488;28;20033;-58
2021/07/21 12:20:30;;;;;;;4.28;2.92;;;;;;;;;;4522870;28;20030;-58
2021/07/21 12:22:43;;;;;;;4.32;3.08;;;;;;;;;;4504909;28;20053;-58
2021/07/21 12:24:55;;;;;;;3.72;2.47;;;;;;;;;;4505474;28;20804;-58
2021/07/21 12:27:08;;;;;;;4.28;2.90;;;;;;;;;;4522541;28;20114;-58
2021/07/21 12:29:25;;;;;;;3.83;2.63;;;;;;;;;;4522345;28;20603;-58
2021/07/21 12:31:36;;;;;;;4.30;2.67;;;;;;;;;;4522619;28;20033;-58
2021/07/21 12:33:46;;;;;;;4.47;2.90;;;;;;;;;;4523185;28;20026;-57
2021/07/21 12:36:07;;;;;;;4.17;2.80;;;;;;;;;;4522353;28;20041;-57
2021/07/21 12:38:18;;;;;;;3.87;2.63;;;;;;;;;;4522029;28;20544;-58
2021/07/21 12:40:30;;;;;;;4.67;3.07;;;;;;;;;;4504453;28;20073;-57
2021/07/21 12:42:41;;;;;;;4.78;2.70;;;;;;;;;;4498669;28;20061;-58
2021/07/21 12:44:58;;;;;;;4.00;2.60;;;;;;;;;;4522175;28;20120;-58
2021/07/21 12:47:14;;;;;;;4.78;2.78;;;;;;;;;;4505257;28;20656;-58
2021/07/21 12:49:25;;;;;;;3.70;2.30;;;;;;;;;;4504602;28;20121;-57
2021/07/21 12:51:38;;;;;;;4.63;2.90;;;;;;;;;;4522802;28;20664;-57
2021/07/21 12:53:49;;;;;;;3.67;2.47;;;;;;;;;;4520912;28;20253;-57
2021/07/21 12:55:59;;;;;;;3.93;2.70;;;;;;;;;;4504426;28;20034;-57
2021/07/21 12:58:11;;;;;;;4.00;2.70;;;;;;;;;;4498399;28;20033;-58
2021/07/21 13:00:24;;;;;;;4.97;2.80;;;;;;;;;;4493281;28;20058;-57
2021/07/21 13:02:34;;;;;;;3.13;2.53;;;;;;;;;;4522109;28;20068;-57
2021/07/21 13:04:44;;;;;;;4.33;2.73;;;;;;;;;;4522300;28;20042;-58
2021/07/21 13:07:07;;;;;;;5.77;2.93;;;;;;;;;;4522100;28;20038;-58
2021/07/21 13:09:18;;;;;;;5.80;3.42;;;;;;;;;;4505175;23;20149;-58
2021/07/21 13:11:28;;;;;;;4.80;3.03;;;;;;;;;;4507810;28;20049;-58
2021/07/21 13:13:40;;;;;;;4.22;3.03;;;;;;;;;;4531550;28;20116;-58
2021/07/21 13:16:02;;;;;;;5.15;3.25;;;;;;;;;;4530351;28;20037;-58
2021/07/21 13:18:15;;;;;;;4.60;3.05;;;;;;;;;;4516232;28;21019;-58
2021/07/21 13:20:38;;;;;;;6.18;3.35;;;;;;;;;;4529167;28;20140;-59
2021/07/21 13:22:48;;;;;;;5.15;3.22;;;;;;;;;;4528805;28;20060;-58
2021/07/21 13:25:13;;;;;;;5.70;3.50;;;;;;;;;;4513004;28;20077;-58
2021/07/21 13:27:30;;;;;;;4.90;3.20;;;;;;;;;;4529375;28;20041;-58
2021/07/21 13:29:42;;;;;;;4.47;3.13;;;;;;;;;;4480737;28;20141;-58
2021/07/21 13:31:52;;;;;;;5.10;3.40;;;;;;;;;;4528768;28;20063;-58
2021/07/21 13:34:03;;;;;;;5.03;3.20;;;;;;;;;;4527931;28;20084;-58
2021/07/21 13:36:16;;;;;;;6.30;3.70;;;;;;;;;;4528488;28;20029;-58
2021/07/21 13:38:26;;;;;;;4.70;3.40;;;;;;;;;;4510584;28;20034;-58
2021/07/21 13:40:37;;;;;;;4.50;3.13;;;;;;;;;;4526869;28;20397;-58